createdAt,value
2019-02-04T00:02:08.825Z,6.90
2019-02-04T00:04:42.254Z,5.87
2019-02-04T00:07:14.187Z,6.60
2019-02-04T00:09:45.314Z,6.87
2019-02-04T00:12:23.622Z,6.67
2019-02-04T00:15:03.080Z,6.20
2019-02-04T00:17:34.205Z,6.47
2019-02-04T00:20:05.332Z,6.47
2019-02-04T00:22:36.438Z,6.47
2019-02-04T00:25:06.923Z,6.23
2019-02-04T00:27:37.494Z,6.50
2019-02-04T00:30:08.770Z,5.47
2019-02-04T00:32:41.116Z,6.47
2019-02-04T00:35:12.052Z,6.63
2019-02-04T00:37:42.986Z,6.60
2019-02-04T00:40:15.812Z,6.40
2019-02-04T00:42:46.474Z,6.53
2019-02-04T00:45:20.877Z,6.77
2019-02-04T00:47:59.751Z,6.53
2019-02-04T00:50:39.969Z,6.87
2019-02-04T00:53:10.710Z,6.43
2019-02-04T00:55:41.139Z,6.87
2019-02-04T00:58:15.935Z,6.30
2019-02-04T01:00:46.882Z,6.53
2019-02-04T01:03:20.077Z,6.70
2019-02-04T01:05:55.226Z,6.23
2019-02-04T01:08:30.867Z,6.97
2019-02-04T01:10:59.397Z,6.73
2019-02-04T01:13:31.785Z,6.57
2019-02-04T01:16:05.112Z,6.90
2019-02-04T01:18:37.446Z,6.37
2019-02-04T01:21:14.371Z,6.63
2019-02-04T01:23:48.097Z,6.30
2019-02-04T01:26:29.755Z,6.70
2019-02-04T01:28:56.557Z,6.63
2019-02-04T01:31:29.392Z,7.07
2019-02-04T01:34:03.218Z,6.40
2019-02-04T01:36:33.814Z,5.73
2019-02-04T01:39:22.479Z,5.93
2019-02-04T01:41:54.977Z,5.93
2019-02-04T01:44:26.337Z,6.43
2019-02-04T01:46:57.336Z,7.47
2019-02-04T01:49:28.013Z,5.63
2019-02-04T01:51:58.842Z,5.73
2019-02-04T01:54:29.642Z,6.57
2019-02-04T01:57:00.831Z,5.97
2019-02-04T01:59:31.635Z,6.60
2019-02-04T02:02:02.217Z,6.43
2019-02-04T02:04:34.212Z,6.53
2019-02-04T02:07:08.329Z,6.47
2019-02-04T02:09:40.703Z,6.10
2019-02-04T02:12:13.615Z,5.67
2019-02-04T02:14:44.498Z,5.80
2019-02-04T02:17:25.658Z,6.63
2019-02-04T02:19:50.449Z,6.67
2019-02-04T02:22:21.521Z,6.70
2019-02-04T02:24:53.905Z,6.60
2019-02-04T02:27:24.252Z,5.37
2019-02-04T02:29:56.637Z,6.30
2019-02-04T02:32:28.991Z,6.27
2019-02-04T02:34:59.952Z,6.20
2019-02-04T02:37:36.919Z,6.10
2019-02-04T02:40:13.902Z,5.90
2019-02-04T02:42:43.167Z,6.27
2019-02-04T02:45:14.748Z,6.40
2019-02-04T02:47:45.676Z,5.33
2019-02-04T02:50:18.673Z,6.13
2019-02-04T02:52:49.456Z,6.73
2019-02-04T02:55:19.890Z,6.23
2019-02-04T02:57:50.227Z,6.07
2019-02-04T03:00:22.909Z,6.00
2019-02-04T03:02:53.415Z,5.43
2019-02-04T03:05:28.679Z,5.50
2019-02-04T03:07:59.548Z,5.40
2019-02-04T03:10:34.896Z,6.27
2019-02-04T03:13:05.976Z,5.93
2019-02-04T03:15:37.836Z,6.93
2019-02-04T03:18:09.301Z,6.60
2019-02-04T03:20:41.144Z,5.97
2019-02-04T03:23:12.995Z,5.90
2019-02-04T03:25:45.943Z,5.70
2019-02-04T03:28:17.239Z,6.40
2019-02-04T03:30:54.507Z,6.13
2019-02-04T03:33:27.880Z,6.20
2019-02-04T03:36:01.315Z,5.60
2019-02-04T03:38:34.335Z,6.27
2019-02-04T03:41:04.992Z,6.20
2019-02-04T03:43:36.963Z,6.17
2019-02-04T03:46:07.610Z,6.37
2019-02-04T03:48:37.950Z,6.30
2019-02-04T03:51:08.580Z,6.40
2019-02-04T03:53:41.322Z,6.60
2019-02-04T03:56:11.982Z,6.50
2019-02-04T03:58:42.810Z,6.27
2019-02-04T04:01:16.099Z,6.70
2019-02-04T04:03:46.806Z,6.97
2019-02-04T04:06:17.561Z,6.57
2019-02-04T04:08:53.507Z,6.17
2019-02-04T04:11:23.864Z,5.90
2019-02-04T04:13:54.856Z,6.70
2019-02-04T04:16:26.846Z,5.93
2019-02-04T04:18:57.310Z,6.13
2019-02-04T04:21:29.734Z,5.63
2019-02-04T04:24:00.433Z,6.33
2019-02-04T04:26:31.186Z,6.80
2019-02-04T04:29:06.232Z,6.37
2019-02-04T04:31:42.888Z,6.57
2019-02-04T04:34:14.875Z,6.80
2019-02-04T04:36:45.686Z,6.47
2019-02-04T04:39:18.830Z,6.53
2019-02-04T04:41:54.717Z,6.50
2019-02-04T04:44:25.987Z,6.80
2019-02-04T04:46:56.766Z,6.37
2019-02-04T04:49:29.025Z,6.83
2019-02-04T04:52:07.911Z,5.90
2019-02-04T04:54:41.726Z,5.80
2019-02-04T04:57:30.558Z,6.37
2019-02-04T05:00:06.103Z,5.80
2019-02-04T05:02:40.188Z,6.73
2019-02-04T05:05:13.613Z,6.63
2019-02-04T05:07:51.746Z,6.77
2019-02-04T05:10:19.986Z,7.27
2019-02-04T05:13:07.110Z,6.67
2019-02-04T05:15:41.096Z,7.53
2019-02-04T05:18:11.878Z,7.63
2019-02-04T05:20:44.630Z,7.30
2019-02-04T05:23:25.092Z,7.40
2019-02-04T05:25:54.495Z,7.50
2019-02-04T05:28:26.051Z,6.80
2019-02-04T05:31:05.487Z,8.17
2019-02-04T05:33:55.559Z,7.10
2019-02-04T05:39:20.922Z,6.60
2019-02-04T05:41:58.898Z,5.73
2019-02-04T05:44:34.378Z,6.67
2019-02-04T05:47:15.887Z,6.37
2019-02-04T05:50:01.810Z,8.10
2019-02-04T05:52:42.306Z,7.90
2019-02-04T05:55:15.474Z,5.90
2019-02-04T05:57:53.988Z,6.10
2019-02-04T06:00:53.087Z,6.20
2019-02-04T06:03:26.940Z,5.43
2019-02-04T06:06:01.955Z,5.50
2019-02-04T06:08:40.333Z,5.77
2019-02-04T06:11:14.064Z,5.73
2019-02-04T06:13:46.037Z,6.80
2019-02-04T06:16:16.707Z,6.77
2019-02-04T06:18:48.696Z,6.00
2019-02-04T06:21:20.616Z,5.57
2019-02-04T06:23:58.113Z,5.57
2019-02-04T06:29:43.249Z,5.90
2019-02-04T06:32:30.524Z,6.43
2019-02-04T06:35:26.401Z,5.93
2019-02-04T06:38:13.058Z,5.97
2019-02-04T06:40:49.686Z,6.27
2019-02-04T06:43:22.059Z,6.03
2019-02-04T06:45:56.474Z,6.53
2019-02-04T06:48:28.843Z,6.10
2019-02-04T06:50:59.948Z,6.73
2019-02-04T06:53:39.778Z,6.43
2019-02-04T06:56:17.869Z,7.30
2019-02-04T06:58:55.235Z,8.43
2019-02-04T07:01:29.788Z,7.83
2019-02-04T07:04:03.279Z,6.57
2019-02-04T07:06:33.602Z,6.10
2019-02-04T07:09:08.317Z,6.23
2019-02-04T07:11:40.266Z,6.90
2019-02-04T07:14:10.576Z,7.17
2019-02-04T07:16:48.797Z,7.97
2019-02-04T07:19:24.407Z,7.97
2019-02-04T07:21:54.774Z,8.10
2019-02-04T07:24:42.467Z,7.63
2019-02-04T07:27:07.816Z,7.20
2019-02-04T07:29:58.217Z,7.40
2019-02-04T07:32:30.908Z,6.70
2019-02-04T07:35:02.815Z,6.87
2019-02-04T07:37:40.660Z,6.77
2019-02-04T07:40:16.485Z,6.43
2019-02-04T07:42:49.078Z,6.77
2019-02-04T07:45:23.127Z,6.77
2019-02-04T07:47:58.046Z,7.60
2019-02-04T07:50:34.343Z,7.37
2019-02-04T07:53:11.415Z,7.00
2019-02-04T07:55:41.955Z,8.40
2019-02-04T07:58:22.385Z,8.77
2019-02-04T08:00:53.217Z,10.13
2019-02-04T08:03:28.003Z,10.03
2019-02-04T08:06:01.349Z,10.80
2019-02-04T08:08:36.936Z,10.47
2019-02-04T08:11:14.197Z,9.00
2019-02-04T08:13:45.068Z,10.67
2019-02-04T08:16:17.018Z,9.33
2019-02-04T08:18:49.244Z,10.00
2019-02-04T08:21:21.267Z,8.40
2019-02-04T08:23:51.718Z,7.23
2019-02-04T08:26:22.026Z,7.87
2019-02-04T08:28:55.591Z,7.43
2019-02-04T08:31:27.327Z,6.93
2019-02-04T08:34:01.068Z,7.63
2019-02-04T08:36:43.087Z,7.53
2019-02-04T08:39:07.340Z,7.37
2019-02-04T08:41:38.047Z,11.07
2019-02-04T08:44:09.317Z,9.50
2019-02-04T08:46:41.286Z,8.47
2019-02-04T08:49:11.925Z,9.00
2019-02-04T08:51:42.291Z,8.50
2019-02-04T08:54:15.703Z,8.53
2019-02-04T08:56:46.509Z,8.80
2019-02-04T08:59:18.338Z,8.67
2019-02-04T09:01:48.859Z,7.33
2019-02-04T09:04:19.199Z,8.20
2019-02-04T09:06:50.866Z,8.73
2019-02-04T09:09:24.354Z,7.63
2019-02-04T09:11:54.804Z,8.03
2019-02-04T09:14:28.024Z,8.10
2019-02-04T09:17:02.119Z,8.27
2019-02-04T09:19:34.816Z,8.53
2019-02-04T09:22:07.018Z,8.60
2019-02-04T09:24:42.487Z,8.50
2019-02-04T09:27:15.119Z,7.70
2019-02-04T09:29:46.017Z,9.07
2019-02-04T09:32:16.795Z,8.43
2019-02-04T09:34:47.730Z,8.17
2019-02-04T09:37:20.398Z,8.73
2019-02-04T09:39:51.038Z,8.70
2019-02-04T09:42:22.017Z,9.20
2019-02-04T09:45:01.631Z,10.20
2019-02-04T09:47:36.145Z,10.70
2019-02-04T09:50:07.620Z,10.70
2019-02-04T09:52:38.075Z,11.10
2019-02-04T09:55:13.432Z,11.80
2019-02-04T09:57:45.846Z,8.10
2019-02-04T10:00:23.631Z,7.93
2019-02-04T10:02:59.717Z,9.77
2019-02-04T10:05:30.129Z,9.17
2019-02-04T10:08:05.889Z,8.37
2019-02-04T10:10:40.093Z,8.40
2019-02-04T10:13:11.978Z,8.30
2019-02-04T10:15:48.958Z,9.43
2019-02-04T10:18:22.803Z,9.23
2019-02-04T10:20:53.150Z,8.40
2019-02-04T10:23:24.257Z,8.27
2019-02-04T10:25:54.959Z,8.17
2019-02-04T10:28:27.130Z,9.43
2019-02-04T10:30:58.749Z,7.80
2019-02-04T10:33:29.663Z,7.60
2019-02-04T10:36:01.929Z,7.37
2019-02-04T10:38:37.227Z,7.27
2019-02-04T10:41:09.538Z,7.83
2019-02-04T10:43:47.646Z,7.77
2019-02-04T10:46:21.100Z,6.97
2019-02-04T10:48:58.031Z,7.70
2019-02-04T10:51:36.327Z,6.90
2019-02-04T10:54:11.651Z,7.20
2019-02-04T10:56:44.066Z,6.83
2019-02-04T10:59:22.516Z,8.07
2019-02-04T11:01:55.223Z,7.43
2019-02-04T11:04:25.992Z,7.50
2019-02-04T11:06:58.489Z,7.77
2019-02-04T11:09:30.711Z,7.43
2019-02-04T11:12:07.139Z,8.53
2019-02-04T11:14:44.868Z,7.43
2019-02-04T11:17:18.406Z,8.90
2019-02-04T11:19:54.003Z,9.40
2019-02-04T11:22:27.916Z,9.83
2019-02-04T11:24:58.953Z,10.03
2019-02-04T11:27:35.576Z,9.03
2019-02-04T11:30:13.157Z,9.17
2019-02-04T11:33:07.718Z,9.37
2019-02-04T11:35:45.118Z,8.60
2019-02-04T11:38:17.445Z,7.93
2019-02-04T11:40:50.108Z,8.40
2019-02-04T11:43:26.103Z,8.30
2019-02-04T11:46:06.941Z,7.80
2019-02-04T11:48:39.553Z,7.90
2019-02-04T11:51:28.556Z,7.63
2019-02-04T11:53:59.155Z,8.17
2019-02-04T11:56:32.765Z,7.53
2019-02-04T11:59:06.447Z,7.77
2019-02-04T12:01:43.429Z,9.33
2019-02-04T12:04:14.295Z,8.13
2019-02-04T12:06:46.648Z,8.37
2019-02-04T12:09:20.206Z,8.20
2019-02-04T12:11:55.738Z,8.17
2019-02-04T12:14:31.585Z,7.67
2019-02-04T12:17:07.360Z,8.07
2019-02-04T12:19:38.928Z,8.17
2019-02-04T12:22:12.682Z,7.67
2019-02-04T12:24:44.760Z,7.40
2019-02-04T12:27:17.959Z,7.97
2019-02-04T12:29:51.784Z,7.40
2019-02-04T12:32:23.839Z,7.07
2019-02-04T12:34:54.564Z,7.83
2019-02-04T12:37:32.484Z,7.23
2019-02-04T12:40:03.371Z,7.40
2019-02-04T12:42:40.409Z,7.60
2019-02-04T12:45:19.635Z,8.37
2019-02-04T12:47:51.063Z,8.53
2019-02-04T12:50:25.336Z,8.30
2019-02-04T12:53:10.217Z,8.20
2019-02-04T12:55:43.077Z,7.53
2019-02-04T12:58:17.715Z,7.53
2019-02-04T13:00:52.337Z,9.73
2019-02-04T13:03:24.121Z,8.67
2019-02-04T13:06:01.961Z,8.40
2019-02-04T13:08:40.589Z,11.10
2019-02-04T13:11:15.792Z,8.27
2019-02-04T13:13:49.289Z,7.97
2019-02-04T13:16:21.802Z,10.53
2019-02-04T13:18:55.092Z,10.07
2019-02-04T13:21:28.338Z,11.10
2019-02-04T13:23:59.841Z,8.53
2019-02-04T13:26:50.618Z,9.33
2019-02-04T13:29:21.561Z,8.70
2019-02-04T13:31:56.042Z,8.07
2019-02-04T13:34:46.861Z,8.83
2019-02-04T13:37:19.586Z,10.10
2019-02-04T13:39:56.970Z,9.10
2019-02-04T13:42:36.131Z,8.70
2019-02-04T13:45:11.846Z,9.37
2019-02-04T13:47:47.278Z,8.63
2019-02-04T13:50:22.020Z,10.23
2019-02-04T13:52:53.761Z,9.70
2019-02-04T13:55:31.879Z,9.80
2019-02-04T13:58:02.317Z,9.33
2019-02-04T14:00:32.936Z,10.17
2019-02-04T14:03:08.774Z,10.33
2019-02-04T14:05:42.134Z,10.43
2019-02-04T14:08:18.247Z,9.80
2019-02-04T14:10:53.184Z,10.03
2019-02-04T14:13:28.201Z,8.43
2019-02-04T14:16:13.910Z,8.97
2019-02-04T14:18:55.900Z,9.87
2019-02-04T14:21:31.222Z,9.70
2019-02-04T14:24:06.127Z,9.87
2019-02-04T14:26:53.350Z,9.30
2019-02-04T14:29:25.893Z,8.57
2019-02-04T14:31:58.469Z,8.87
2019-02-04T14:34:29.591Z,8.33
2019-02-04T14:37:03.142Z,9.53
2019-02-04T14:39:37.711Z,10.00
2019-02-04T14:42:19.403Z,9.17
2019-02-04T14:45:00.469Z,10.37
2019-02-04T14:47:41.424Z,9.90
2019-02-04T14:50:18.439Z,9.73
2019-02-04T14:53:28.296Z,10.27
2019-02-04T14:56:24.103Z,17.70
2019-02-04T14:59:14.792Z,10.53
2019-02-04T15:02:21.817Z,8.93
2019-02-04T15:05:19.200Z,8.77
2019-02-04T15:08:32.871Z,8.63
2019-02-04T15:11:46.944Z,9.33
2019-02-04T15:14:55.270Z,9.50
2019-02-04T15:18:08.496Z,9.57
2019-02-04T15:21:15.225Z,9.53
2019-02-04T15:24:14.505Z,9.00
2019-02-04T15:27:23.666Z,9.10
2019-02-04T15:30:04.300Z,8.40
2019-02-04T15:33:09.947Z,10.90
2019-02-04T15:36:32.028Z,11.47
2019-02-04T15:39:43.738Z,10.13
2019-02-04T15:43:17.036Z,11.00
2019-02-04T15:46:12.269Z,12.53
2019-02-04T15:49:27.675Z,10.27
2019-02-04T15:52:17.489Z,11.03
2019-02-04T15:54:48.482Z,11.80
2019-02-04T15:57:25.768Z,12.10
2019-02-04T16:00:01.192Z,10.77
2019-02-04T16:02:39.080Z,11.40
2019-02-04T16:05:25.864Z,10.83
2019-02-04T16:09:04.623Z,12.27
2019-02-04T16:10:50.981Z,11.50
2019-02-04T16:13:24.915Z,11.53
2019-02-04T16:16:48.309Z,12.90
2019-02-04T16:19:23.116Z,11.73
2019-02-04T16:21:57.356Z,12.80
2019-02-04T16:24:36.284Z,13.23
2019-02-04T16:27:09.183Z,13.73
2019-02-04T16:29:39.651Z,13.80
2019-02-04T16:32:16.447Z,12.00
2019-02-04T16:34:47.251Z,13.57
2019-02-04T16:37:18.243Z,11.67
2019-02-04T16:39:53.154Z,12.57
2019-02-04T16:42:24.120Z,12.87
2019-02-04T16:45:24.933Z,10.53
2019-02-04T16:48:10.009Z,11.67
2019-02-04T16:50:58.889Z,13.10
2019-02-04T16:53:28.290Z,13.17
2019-02-04T16:56:00.448Z,11.90
2019-02-04T17:01:04.386Z,13.70
2019-02-04T17:03:41.872Z,13.40
2019-02-04T17:06:17.210Z,14.23
2019-02-04T17:09:07.364Z,14.43
2019-02-04T17:11:38.144Z,13.63
2019-02-04T17:14:11.346Z,12.90
2019-02-04T17:16:46.773Z,13.43
2019-02-04T17:19:19.249Z,13.67
2019-02-04T17:21:55.409Z,13.43
2019-02-04T17:24:26.293Z,15.60
2019-02-04T17:27:28.898Z,14.67
2019-02-04T17:30:20.002Z,13.30
2019-02-04T17:33:29.774Z,12.53
2019-02-04T17:36:01.154Z,11.63
2019-02-04T17:38:51.111Z,11.27
2019-02-04T17:41:20.995Z,11.87
2019-02-04T17:44:33.688Z,11.00
2019-02-04T17:47:08.364Z,11.10
2019-02-04T17:49:57.631Z,10.17
2019-02-04T17:52:25.551Z,11.60
2019-02-04T17:55:06.990Z,11.70
2019-02-04T17:57:52.104Z,11.53
2019-02-04T18:00:50.374Z,11.70
2019-02-04T18:03:36.446Z,11.57
2019-02-04T18:06:09.911Z,11.43
2019-02-04T18:08:48.759Z,10.83
2019-02-04T18:11:29.114Z,11.77
2019-02-04T18:14:11.874Z,11.13
2019-02-04T18:16:49.026Z,8.93
2019-02-04T18:20:23.662Z,10.90
2019-02-04T18:23:05.697Z,9.73
2019-02-04T18:25:44.544Z,10.90
2019-02-04T18:28:20.205Z,10.37
2019-02-04T18:30:58.844Z,10.40
2019-02-04T18:33:41.516Z,10.80
2019-02-04T18:36:12.050Z,10.07
2019-02-04T18:38:47.585Z,11.27
2019-02-04T18:41:21.442Z,9.40
2019-02-04T18:43:52.345Z,11.73
2019-02-04T18:46:31.815Z,10.30
2019-02-04T18:49:02.329Z,11.90
2019-02-04T18:52:02.652Z,11.00
2019-02-04T18:54:18.919Z,12.13
2019-02-04T18:56:52.077Z,11.40
2019-02-04T18:59:31.107Z,13.20
2019-02-04T19:02:01.993Z,11.53
2019-02-04T19:04:34.604Z,11.00
2019-02-04T19:07:09.180Z,10.63
2019-02-04T19:09:54.646Z,10.10
2019-02-04T19:12:33.564Z,9.87
2019-02-04T19:15:19.628Z,10.03
2019-02-04T19:18:02.812Z,10.23
2019-02-04T19:20:41.231Z,10.13
2019-02-04T19:23:23.011Z,10.03
2019-02-04T19:25:55.871Z,10.90
2019-02-04T19:28:37.541Z,12.23
2019-02-04T19:31:16.578Z,12.27
2019-02-04T19:33:51.035Z,11.00
2019-02-04T19:36:28.554Z,11.50
2019-02-04T19:38:59.869Z,12.03
2019-02-04T19:41:39.921Z,12.93
2019-02-04T19:44:17.720Z,12.43
2019-02-04T19:46:48.750Z,10.30
2019-02-04T19:49:19.511Z,12.47
2019-02-04T19:51:55.278Z,11.80
2019-02-04T19:54:30.463Z,11.17
2019-02-04T19:57:04.126Z,12.70
2019-02-04T19:59:40.032Z,11.87
2019-02-04T20:02:14.016Z,12.53
2019-02-04T20:04:45.083Z,12.53
2019-02-04T20:07:18.258Z,11.67
2019-02-04T20:09:48.896Z,12.03
2019-02-04T20:12:19.688Z,11.37
2019-02-04T20:14:50.419Z,11.37
2019-02-04T20:17:23.403Z,11.60
2019-02-04T20:19:58.893Z,10.63
2019-02-04T20:22:33.741Z,10.27
2019-02-04T20:25:12.063Z,9.87
2019-02-04T20:27:49.074Z,9.47
2019-02-04T20:30:22.565Z,9.00
2019-02-04T20:32:58.617Z,9.87
